Airfield :
LOGIN :

Register | Disclaimer

   EN    FR    IT 

 










Legend :    VFR   Marginal VFR   IFR   Intensive IFR   Very Intensive IFR
Visi :
Ceiling :
>= 8 km
>= 3000ft
5 to 8 km
1000 to 3000 ft
1500m to 5 km
500 to 1000 ft
800 to 1500m
200 to 500 ft
< 800m
< 200 ft
Symbols :   Thunderstorms  Fog  Heavy snow  Heavy precipitations  Wind > 20 kt
SIGMETs :     Misc.  Thunderstorms  Icing  Turbulence  Mountain Waves  Volcanic Ashes







- Airport Elevation : 1416 ft
- IATA code : ZRH


LSZH - Zurich

CURRENT METAR :
  • 190250Z 16002KT 3500 -SN SCT004 BKN011 00/M00 Q1020 TEMPO 2000 SN

EXPIRED METARs :
  • 190220Z 17004KT 4000 -SN SCT004 BKN009 00/M00 Q1020 TEMPO 2000 SN
  • 190150Z 14003KT 3000 -SN SCT004 BKN009 00/M01 Q1020 TEMPO 2000 SN
  • 190120Z VRB03KT 4000 -SN SCT007 BKN011 01/M00 Q1020 TEMPO 2000 SN
  • 190050Z 21004KT 9000 -RASN SCT009 BKN015 02/M00 Q1021 NOSIG
  • 190020Z 22006KT 9999 -RA FEW018 BKN020 03/M01 Q1021 NOSIG

TAF COR TAF LSZH
Valid from the 19 at 03:00 until the 20 at 09:00 UTC


190225Z 1903/2009 23005KT 4000 -SN FEW005 SCT007 BKN010 TX05/1914Z TN01/1905Z TNM02/2003Z
PROB30
TEMPO 1903/1908 1500 SN BKN005
BECMG 1908/1912 9999 NSW FEW010 SCT020 BKN040
PROB40
TEMPO 1908/1916 SHRA
PROB30 1922/2003 BKN014
BECMG 2003/2006 CAVOK
ATIS : +41 43 816 2295 (DEP) +41 43 816 2294 (ARR)
No reported NOTAMs for that airfield.



MET'MAP, your aeronautical weather chart ! - Copyright ORBIFLY December 2007 - Disclaimer

ORBIFLY MET'MAP TEAM :

Programming & Development : Alexandra Zaïnal
Concept & Development : Baudouin d'Aumeries
Co-Development & Prog : Marc-Olivier Méhu
Technical & hardware support : Manuel Goepfert

Contact : metmap@orbifly.com




SOURCES & CREDITS :

   NOAA